Twigg, Illinois
Current Conditions -  °F | °C
As of 4:55 PM on Thursday 27 Nov 2014 (Local Time) from KHSB Reporting Station
Clear Clear  
Wind Chill: 25°   Ceiling: Unl
Heat Index: 30°   Visibility: 10mi
Dew Point: 24°   Wind: 5mph
Humidity: 79%   Direction: 330°NNW
Pressure: 30.48"   Gusts: NA
Location:  37.9948°N, 88.5401°W
Report Text: KHSB 272255Z AUTO 33004KT 10SM CLR M01/M04 A3048 RMK AO2 T10101043
Loading
Personal Weather Stations






























Interactive Weather Map New forecast layout! Learn more

10-Day Weather Forecast

Advertisements
Track Severe Weather on mobile